Time;durP1;ratioP1;P1;durP2;ratioP2;P2;SDS_P1;SDS_P2;PMS_P1;PMS_P2;Temp;Humidity;BMP_temperature;BMP_pressure;BME280_temperature;BME280_humidity;BME280_pressure;Samples;Min_cycle;Max_cycle;Signal;HPM_P1;HPM_P2
2022/10/07 00:01:10;;;;;;;10.57;2.92;;;;;;;21.42;57.20;101276.03;2093584;28;20143;-77
2022/10/07 00:02:33;;;;;;;9.32;1.95;;;;;;;21.42;57.20;101275.16;2093416;28;20044;-78
2022/10/07 00:03:55;;;;;;;9.43;1.80;;;;;;;21.41;57.02;101274.25;2075425;28;20276;-78
2022/10/07 00:05:18;;;;;;;12.90;1.92;;;;;;;21.41;57.13;101270.69;2081240;28;20094;-78
2022/10/07 00:06:40;;;;;;;7.85;2.08;;;;;;;21.38;56.91;101273.47;2084672;28;20045;-78
2022/10/07 00:08:02;;;;;;;8.82;1.73;;;;;;;21.36;56.73;101273.47;2081956;28;20519;-78
2022/10/07 00:09:24;;;;;;;8.20;1.73;;;;;;;21.35;56.64;101271.72;2082445;28;20060;-78
2022/10/07 00:10:47;;;;;;;11.95;1.98;;;;;;;21.34;56.66;101263.66;2083214;28;20095;-78
2022/10/07 00:12:09;;;;;;;5.32;2.38;;;;;;;21.34;56.71;101266.34;2090884;28;20055;-78
2022/10/07 00:13:31;;;;;;;10.50;2.95;;;;;;;21.32;56.96;101258.34;2090216;28;20669;-78
2022/10/07 00:14:54;;;;;;;31.17;3.80;;;;;;;21.31;57.38;101264.63;2093637;28;20048;-77
2022/10/07 00:16:16;;;;;;;7.25;2.10;;;;;;;21.30;57.48;101264.66;2085104;28;20080;-78
2022/10/07 00:17:39;;;;;;;10.02;2.53;;;;;;;21.29;57.55;101268.25;2091275;28;20139;-76
2022/10/07 00:19:04;;;;;;;8.38;2.63;;;;;;;21.29;57.55;101263.78;2084912;28;20136;-76
2022/10/07 00:20:27;;;;;;;11.85;2.00;;;;;;;21.29;57.62;101265.56;2082800;28;20440;-76
2022/10/07 00:21:51;;;;;;;8.80;1.67;;;;;;;21.29;57.38;101258.41;2082748;28;20059;-77
2022/10/07 00:23:12;;;;;;;8.88;1.60;;;;;;;21.31;57.12;101258.38;2074655;28;20464;-79
2022/10/07 00:24:35;;;;;;;10.90;2.92;;;;;;;21.30;57.00;101253.91;2077989;28;20138;-77
2022/10/07 00:26:00;;;;;;;8.13;1.60;;;;;;;21.31;57.10;101258.38;2092887;28;20062;-77
2022/10/07 00:27:22;;;;;;;11.18;2.10;;;;;;;21.32;57.04;101263.72;2080615;28;20045;-77
2022/10/07 00:28:45;;;;;;;9.40;2.08;;;;;;;21.32;57.08;101257.47;2090281;28;20145;-77
2022/10/07 00:30:09;;;;;;;9.55;2.83;;;;;;;21.34;56.81;101255.63;2080788;28;20045;-77
2022/10/07 00:31:33;;;;;;;7.45;1.80;;;;;;;21.34;56.89;101261.88;2084809;28;20049;-76
2022/10/07 00:32:55;;;;;;;16.90;1.95;;;;;;;21.33;56.62;101259.25;2091912;28;20144;-77
2022/10/07 00:34:18;;;;;;;15.43;2.58;;;;;;;21.35;56.63;101260.97;2092400;28;20140;-78
2022/10/07 00:35:41;;;;;;;4.43;1.75;;;;;;;21.40;56.57;101279.66;2076897;28;20569;-77
2022/10/07 00:37:03;;;;;;;9.27;2.17;;;;;;;21.40;56.51;101263.53;2087071;28;20517;-77
2022/10/07 00:38:25;;;;;;;9.05;1.80;;;;;;;21.42;56.63;101270.66;2078875;28;20141;-78
2022/10/07 00:39:47;;;;;;;12.50;2.42;;;;;;;21.42;56.71;101277.84;2084501;28;20041;-77
2022/10/07 00:41:17;;;;;;;8.48;1.98;;;;;;;21.45;56.62;101267.94;2090808;28;20056;-77
2022/10/07 00:42:41;;;;;;;9.52;1.90;;;;;;;21.44;56.63;101260.78;2094494;28;20048;-77
2022/10/07 00:44:36;;;;;;;5.82;2.22;;;;;;;21.46;56.60;101266.13;2091508;28;20048;-77
2022/10/07 00:46:06;;;;;;;8.95;1.83;;;;;;;21.45;56.79;101257.19;2095207;28;20072;-78
2022/10/07 00:47:29;;;;;;;24.70;2.85;;;;;;;21.48;56.78;101253.53;2085968;28;20045;-74
2022/10/07 00:48:54;;;;;;;12.23;2.17;;;;;;;21.47;56.89;101252.63;2093453;28;20083;-79
2022/10/07 00:50:19;;;;;;;9.57;2.08;;;;;;;21.49;56.92;101247.25;2084005;28;20075;-78
2022/10/07 00:51:44;;;;;;;9.23;1.90;;;;;;;21.46;56.93;101248.19;2084881;28;20060;-77
2022/10/07 00:53:08;;;;;;;11.75;2.70;;;;;;;21.44;57.05;101250.03;2091349;28;20056;-79
2022/10/07 00:54:30;;;;;;;14.45;2.47;;;;;;;21.43;56.90;101248.25;2099797;28;20044;-78
2022/10/07 00:55:54;;;;;;;6.85;1.88;;;;;;;21.43;56.92;101244.69;2079669;28;20139;-76
2022/10/07 00:57:17;;;;;;;7.95;2.17;;;;;;;21.43;57.09;101239.31;2093761;28;20151;-76
2022/10/07 00:58:42;;;;;;;13.52;1.80;;;;;;;21.42;57.11;101248.28;2096707;28;20492;-77
2022/10/07 01:00:07;;;;;;;7.35;1.75;;;;;;;21.40;57.06;101245.63;2087800;28;20049;-77
2022/10/07 01:01:31;;;;;;;9.50;1.90;;;;;;;21.37;56.97;101248.41;2083035;28;20045;-76
2022/10/07 01:02:54;;;;;;;10.52;2.15;;;;;;;21.34;57.08;101245.75;2081879;28;20047;-76
2022/10/07 01:04:19;;;;;;;8.63;2.13;;;;;;;21.32;56.98;101244.94;2081122;28;20707;-77
2022/10/07 01:05:42;;;;;;;10.15;2.50;;;;;;;21.28;56.95;101245.88;2082835;28;20144;-76
2022/10/07 01:07:06;;;;;;;8.77;2.33;;;;;;;21.29;56.68;101271.84;2082333;28;20082;-76
2022/10/07 01:08:29;;;;;;;7.82;1.60;;;;;;;21.28;56.75;101251.25;2072821;28;20606;-78
2022/10/07 01:09:52;;;;;;;7.80;1.95;;;;;;;21.27;56.81;101249.47;2080030;28;20064;-78
2022/10/07 01:11:29;;;;;;;8.40;1.85;;;;;;;21.30;56.85;101264.66;2083024;28;20057;-78
2022/10/07 01:13:04;;;;;;;7.75;1.95;;;;;;;21.30;57.00;101251.22;2087087;28;20500;-78
2022/10/07 01:14:43;;;;;;;13.05;2.00;;;;;;;21.30;57.11;101249.44;2093933;28;20040;-79
2022/10/07 01:16:14;;;;;;;6.53;2.15;;;;;;;21.29;57.19;101252.16;2086494;28;20041;-78
2022/10/07 01:17:45;;;;;;;9.57;1.50;;;;;;;21.30;57.11;101254.81;2085977;28;20061;-78
2022/10/07 01:19:16;;;;;;;;;;;;;;;21.26;57.26;101250.44;2085257;28;20102;-79
2022/10/07 01:20:45;;;;;;;8.85;1.88;;;;;;;21.26;57.32;101245.06;2093298;28;20460;-79
2022/10/07 01:22:22;;;;;;;7.75;1.77;;;;;;;21.24;57.48;101249.56;2090637;28;20071;-78
2022/10/07 01:24:02;;;;;;;8.68;1.73;;;;;;;21.24;57.39;101244.19;2088369;28;20077;-79
2022/10/07 01:25:35;;;;;;;11.30;2.05;;;;;;;21.25;57.30;101247.75;2105417;28;20040;-78
2022/10/07 01:27:04;;;;;;;8.63;1.83;;;;;;;21.23;57.41;101250.47;2091717;28;20158;-79
2022/10/07 01:28:30;;;;;;;10.70;2.30;;;;;;;21.19;57.51;101251.47;2086619;28;20745;-79
2022/10/07 01:29:57;;;;;;;11.27;2.80;;;;;;;21.15;57.70;101244.34;2097118;28;20052;-78
2022/10/07 01:31:27;;;;;;;6.47;1.85;;;;;;;21.10;57.63;101251.59;2090517;28;20159;-78
2022/10/07 01:32:54;;;;;;;10.45;2.17;;;;;;;21.07;57.67;101254.34;2089034;28;20049;-78
2022/10/07 01:34:17;;;;;;;8.38;2.13;;;;;;;21.05;57.60;101254.38;2078023;28;20169;-81
2022/10/07 01:35:44;;;;;;;17.90;2.33;;;;;;;21.04;57.40;101252.63;2082378;28;20049;-78
2022/10/07 01:37:12;;;;;;;10.68;4.07;;;;;;;21.02;57.51;101257.13;2099817;28;20054;-78
2022/10/07 01:38:35;;;;;;;8.98;1.83;;;;;;;20.99;57.51;101257.19;2097222;28;20179;-78
2022/10/07 01:40:03;;;;;;;9.02;3.08;;;;;;;20.98;57.56;101262.59;2084908;28;20134;-79
2022/10/07 01:41:25;;;;;;;7.00;1.67;;;;;;;20.95;57.53;101259.94;2083650;28;20048;-77
2022/10/07 01:42:51;;;;;;;6.45;2.53;;;;;;;20.93;57.46;101253.75;2091771;28;20141;-78
2022/10/07 01:44:13;;;;;;;5.28;1.70;;;;;;;20.92;57.36;101251.97;2087371;28;20060;-76
2022/10/07 01:45:40;;;;;;;8.40;2.05;;;;;;;20.93;57.35;101251.94;2093659;28;20040;-76
2022/10/07 01:47:02;;;;;;;8.95;1.80;;;;;;;20.93;57.31;101251.06;2087047;28;20056;-76
2022/10/07 01:48:24;;;;;;;9.85;2.30;;;;;;;20.92;57.59;101243.91;2078180;28;20072;-76
2022/10/07 01:49:46;;;;;;;11.20;1.95;;;;;;;20.93;57.70;101253.75;2088370;28;20139;-78
2022/10/07 01:51:08;;;;;;;11.57;2.00;;;;;;;20.92;57.70;101252.84;2088573;28;20079;-79
2022/10/07 01:52:46;;;;;;;8.07;1.90;;;;;;;20.92;57.49;101246.59;2100005;28;20139;-78
2022/10/07 01:54:26;;;;;;;7.38;1.90;;;;;;;20.90;57.60;101246.63;2097067;28;20183;-78
2022/10/07 01:56:01;;;;;;;9.18;2.10;;;;;;;20.88;57.40;101253.81;2097000;28;20497;-79
2022/10/07 01:57:36;;;;;;;6.53;1.75;;;;;;;20.86;57.34;101242.25;2086868;28;20049;-79
2022/10/07 01:59:16;;;;;;;7.47;1.88;;;;;;;20.87;57.39;101249.34;2094147;28;20109;-78
2022/10/07 02:00:46;;;;;;;7.88;2.22;;;;;;;20.84;57.46;101254.78;2088674;28;20075;-78
2022/10/07 02:02:18;;;;;;;7.20;1.92;;;;;;;20.82;57.52;101245.88;2095713;28;20527;-78
2022/10/07 02:03:55;;;;;;;6.30;2.10;;;;;;;20.82;57.53;101250.34;2096418;28;20508;-78
2022/10/07 02:05:26;;;;;;;8.27;1.90;;;;;;;20.83;57.16;101249.44;2079275;28;20346;-78
2022/10/07 02:06:53;;;;;;;7.63;2.40;;;;;;;20.85;57.16;101245.84;2091230;28;20504;-79
2022/10/07 02:08:30;;;;;;;11.65;2.70;;;;;;;20.87;56.85;101245.81;2086878;28;20136;-78
2022/10/07 02:09:59;;;;;;;7.30;1.88;;;;;;;20.90;56.71;101251.09;2086346;28;20044;-79
2022/10/07 02:11:26;;;;;;;10.63;2.00;;;;;;;20.90;56.71;101248.41;2094911;28;20539;-78
2022/10/07 02:13:00;;;;;;;10.00;2.53;;;;;;;20.89;56.90;101241.28;2087513;28;20076;-79
2022/10/07 02:14:37;;;;;;;9.75;1.77;;;;;;;20.88;56.90;101236.81;2064247;28;20042;-79
2022/10/07 02:16:04;;;;;;;3.65;1.63;;;;;;;20.87;56.79;101238.59;2077831;28;20045;-78
2022/10/07 02:17:32;;;;;;;10.02;2.28;;;;;;;20.87;56.97;101246.66;2080575;28;20075;-78
2022/10/07 02:19:01;;;;;;;7.80;2.20;;;;;;;20.85;56.96;101234.22;2086787;28;20556;-78
2022/10/07 02:20:27;;;;;;;7.35;1.73;;;;;;;20.84;56.86;101237.81;2092881;28;20083;-78
2022/10/07 02:21:53;;;;;;;11.55;2.67;;;;;;;20.81;57.06;101243.22;2087813;28;20132;-79
2022/10/07 02:23:18;;;;;;;7.85;1.83;;;;;;;20.80;57.18;101236.09;2086566;28;20120;-78
2022/10/07 02:24:43;;;;;;;8.77;2.40;;;;;;;20.80;57.17;101237.00;2082610;28;20045;-78
2022/10/07 02:26:07;;;;;;;9.40;2.08;;;;;;;20.80;57.33;101233.41;2084315;28;20091;-79
2022/10/07 02:27:33;;;;;;;8.43;3.30;;;;;;;20.78;57.40;101228.06;2084270;28;20048;-79
2022/10/07 02:28:57;;;;;;;7.60;1.95;;;;;;;20.75;57.66;101233.47;2092751;28;20051;-78
2022/10/07 02:30:22;;;;;;;12.52;2.33;;;;;;;20.74;57.84;101222.81;2078131;28;20195;-78
2022/10/07 02:31:47;;;;;;;10.73;1.92;;;;;;;20.74;57.99;101230.84;2087886;28;20474;-78
2022/10/07 02:33:10;;;;;;;6.15;1.90;;;;;;;20.74;57.91;101230.84;2086170;28;20053;-78
2022/10/07 02:34:35;;;;;;;7.72;2.17;;;;;;;20.72;57.81;101228.19;2097395;28;20040;-78
2022/10/07 02:36:01;;;;;;;11.57;2.00;;;;;;;20.71;58.12;101228.22;2096977;28;20082;-77
2022/10/07 02:37:28;;;;;;;14.77;2.10;;;;;;;20.67;58.25;101230.97;2087716;28;20155;-77
2022/10/07 02:38:49;;;;;;;12.63;2.20;;;;;;;20.62;58.50;101232.81;2096681;28;20052;-78
2022/10/07 02:40:12;;;;;;;10.70;1.67;;;;;;;20.60;58.33;101237.34;2087292;28;20041;-77
2022/10/07 02:41:44;;;;;;;7.18;2.00;;;;;;;20.58;58.56;101236.47;2085030;28;20048;-78
2022/10/07 02:43:22;;;;;;;13.43;2.63;;;;;;;20.53;58.99;101227.66;2087186;28;20714;-78
2022/10/07 02:44:50;;;;;;;11.00;2.20;;;;;;;20.53;58.75;101224.06;2083854;28;20049;-78
2022/10/07 02:46:19;;;;;;;8.27;2.15;;;;;;;20.52;59.18;101224.97;2092289;28;20633;-77
2022/10/07 02:47:49;;;;;;;6.18;1.88;;;;;;;20.51;58.98;101221.41;2086837;28;20041;-79
2022/10/07 02:49:13;;;;;;;9.27;2.25;;;;;;;20.52;59.25;101219.63;2086599;28;20037;-79
2022/10/07 02:50:41;;;;;;;7.30;2.22;;;;;;;20.52;59.15;101212.44;2086447;28;20055;-78
2022/10/07 02:52:07;;;;;;;8.00;1.92;;;;;;;20.53;59.21;101216.91;2084956;28;20136;-78
2022/10/07 02:53:32;;;;;;;13.07;2.33;;;;;;;20.58;59.13;101212.34;2081204;28;20095;-78
2022/10/07 02:55:00;;;;;;;12.13;2.10;;;;;;;20.60;59.31;101206.97;2086509;28;20053;-78
2022/10/07 02:56:26;;;;;;;8.75;2.40;;;;;;;20.62;59.27;101211.34;2082909;28;20438;-80
2022/10/07 02:57:53;;;;;;;9.25;1.88;;;;;;;20.64;59.34;101220.28;2087755;28;20049;-80
2022/10/07 02:59:17;;;;;;;10.55;2.45;;;;;;;20.64;58.77;101209.53;2094816;28;20102;-81
2022/10/07 03:00:47;;;;;;;8.68;1.60;;;;;;;20.69;58.91;101210.34;2089790;28;20041;-80
2022/10/07 03:02:17;;;;;;;9.20;2.65;;;;;;;20.73;58.56;101210.28;2080080;28;20126;-81
2022/10/07 03:03:41;;;;;;;7.50;1.98;;;;;;;20.73;58.65;101204.91;2090345;28;20040;-80
2022/10/07 03:05:03;;;;;;;8.35;2.10;;;;;;;20.74;58.52;101204.91;2084500;28;20041;-80
2022/10/07 03:06:29;;;;;;;12.85;2.22;;;;;;;20.73;58.55;101207.59;2085734;28;20584;-80
2022/10/07 03:07:57;;;;;;;11.45;2.03;;;;;;;20.71;58.51;101204.06;2082279;28;20049;-79
2022/10/07 03:09:19;;;;;;;8.05;2.38;;;;;;;20.66;58.76;101205.03;2084167;28;20049;-80
2022/10/07 03:10:41;;;;;;;10.73;2.20;;;;;;;20.63;58.95;101207.75;2085854;28;20052;-80
2022/10/07 03:12:06;;;;;;;8.57;2.58;;;;;;;20.60;59.10;101201.59;2087722;28;20064;-80
2022/10/07 03:13:30;;;;;;;10.38;2.45;;;;;;;20.59;59.35;101208.75;2077684;28;20132;-81
2022/10/07 03:14:55;;;;;;;10.30;2.33;;;;;;;20.56;59.36;101205.22;2080593;28;20056;-80
2022/10/07 03:16:17;;;;;;;11.73;2.20;;;;;;;20.53;59.54;101203.50;2074945;28;20077;-80
2022/10/07 03:17:44;;;;;;;11.55;2.30;;;;;;;20.53;59.45;101203.50;2090187;28;20048;-80
2022/10/07 03:19:06;;;;;;;8.63;1.98;;;;;;;20.52;59.11;101204.41;2080498;28;20096;-80
2022/10/07 03:20:45;;;;;;;8.77;1.92;;;;;;;20.51;58.98;101202.63;2103960;28;20048;-80
2022/10/07 03:22:11;;;;;;;10.50;2.33;;;;;;;20.52;58.93;101208.88;2087399;28;20040;-80
2022/10/07 03:23:35;;;;;;;7.78;2.05;;;;;;;20.51;58.76;101204.44;2088027;28;20044;-79
2022/10/07 03:24:57;;;;;;;7.38;2.38;;;;;;;20.48;59.06;101202.66;2102063;28;20135;-81
2022/10/07 03:26:19;;;;;;;10.63;2.17;;;;;;;20.48;59.02;101205.34;2098939;28;20381;-80
2022/10/07 03:27:42;;;;;;;8.55;2.60;;;;;;;20.47;59.21;101200.94;2087322;28;20043;-78
2022/10/07 03:29:04;;;;;;;7.93;2.30;;;;;;;20.45;59.17;101192.00;2086254;28;20056;-79
2022/10/07 03:30:27;;;;;;;11.07;2.03;;;;;;;20.44;59.26;101198.28;2085628;28;20044;-78
2022/10/07 03:31:54;;;;;;;11.63;3.13;;;;;;;20.44;59.46;101198.28;2082391;28;20064;-78
2022/10/07 03:33:19;;;;;;;11.63;2.80;;;;;;;20.45;59.63;101201.84;2081049;28;20049;-79
2022/10/07 03:34:41;;;;;;;11.30;2.88;;;;;;;20.43;59.75;101195.63;2084773;28;20083;-78
2022/10/07 03:36:07;;;;;;;10.65;2.20;;;;;;;20.44;59.85;101189.34;2085206;28;20109;-78
2022/10/07 03:37:30;;;;;;;8.65;3.13;;;;;;;20.45;59.72;101192.00;2085798;28;20049;-79
2022/10/07 03:38:55;;;;;;;10.75;2.15;;;;;;;20.45;59.61;101186.66;2089503;28;20037;-79
2022/10/07 03:40:17;;;;;;;5.53;2.08;;;;;;;20.45;59.54;101188.44;2076890;28;20045;-78
2022/10/07 03:41:40;;;;;;;8.90;2.17;;;;;;;20.44;59.69;101184.88;2090433;28;20041;-78
2022/10/07 03:43:03;;;;;;;10.68;2.50;;;;;;;20.43;59.53;101185.78;2091616;28;20140;-78
2022/10/07 03:44:25;;;;;;;8.10;2.10;;;;;;;20.43;59.58;101191.16;2102037;28;20036;-78
2022/10/07 03:45:49;;;;;;;12.05;2.83;;;;;;;20.43;59.91;101176.84;2087921;28;20063;-78
2022/10/07 03:47:14;;;;;;;;;;;;;;;20.38;59.64;101176.94;2079192;28;20071;-78
2022/10/07 03:48:38;;;;;;;10.40;2.78;;;;;;;20.39;59.49;101178.72;2093225;28;19927;-78
2022/10/07 03:50:01;;;;;;;8.38;2.20;;;;;;;20.38;59.49;101174.25;2092947;28;20064;-78
2022/10/07 03:51:23;;;;;;;10.13;2.58;;;;;;;20.41;59.76;101184.06;2076297;28;20045;-78
2022/10/07 03:52:45;;;;;;;10.27;2.45;;;;;;;20.41;59.70;101181.38;2080366;28;20099;-79
2022/10/07 03:54:09;;;;;;;11.93;2.55;;;;;;;20.39;59.81;101176.03;2082702;28;20114;-78
2022/10/07 03:55:30;;;;;;;11.05;2.30;;;;;;;20.41;60.21;101179.59;2075084;28;20553;-78
2022/10/07 03:56:53;;;;;;;9.90;3.20;;;;;;;20.42;60.27;101175.06;2076863;28;20049;-78
2022/10/07 03:58:14;;;;;;;10.98;3.08;;;;;;;20.41;60.45;101176.91;2082915;28;20040;-78
2022/10/07 03:59:37;;;;;;;9.98;2.45;;;;;;;20.40;60.39;101172.44;2087971;28;20045;-78
2022/10/07 04:01:06;;;;;;;8.40;2.20;;;;;;;20.41;60.30;101176.91;2082537;28;20060;-78
2022/10/07 04:02:29;;;;;;;10.50;2.72;;;;;;;20.41;60.55;101179.59;2084258;28;20555;-78
2022/10/07 04:03:54;;;;;;;9.65;2.40;;;;;;;20.42;60.49;101175.06;2081732;28;20130;-78
2022/10/07 04:05:18;;;;;;;9.10;2.25;;;;;;;20.42;60.42;101170.59;2092989;28;20460;-77
2022/10/07 04:06:42;;;;;;;9.52;2.67;;;;;;;20.44;60.63;101178.63;2085190;28;20041;-77
2022/10/07 04:08:06;;;;;;;7.85;2.50;;;;;;;20.43;60.63;101179.53;2082546;28;20659;-78
2022/10/07 04:09:29;;;;;;;9.85;2.42;;;;;;;20.43;60.50;101176.84;2085531;28;20424;-78
2022/10/07 04:10:50;;;;;;;10.70;2.60;;;;;;;20.43;60.62;101174.16;2085138;28;20095;-78
2022/10/07 04:12:13;;;;;;;9.45;2.58;;;;;;;20.43;60.70;101180.41;2082890;28;20308;-77
2022/10/07 04:13:35;;;;;;;10.32;3.40;;;;;;;20.46;60.45;101175.00;2085329;28;20139;-78
2022/10/07 04:15:00;;;;;;;10.75;2.30;;;;;;;20.49;60.45;101177.63;2084848;28;20406;-78
2022/10/07 04:16:22;;;;;;;8.73;2.10;;;;;;;20.48;60.70;101181.22;2087861;28;20301;-78
2022/10/07 04:17:46;;;;;;;9.45;2.50;;;;;;;20.49;60.75;101172.25;2083878;28;20048;-78
2022/10/07 04:19:12;;;;;;;11.60;2.53;;;;;;;20.50;60.94;101182.06;2084751;28;20668;-78
2022/10/07 04:20:36;;;;;;;9.10;2.90;;;;;;;20.52;60.92;101180.25;2091308;28;20484;-79
2022/10/07 04:21:59;;;;;;;8.40;2.72;;;;;;;20.54;60.89;101180.25;2084198;28;20175;-79
2022/10/07 04:23:20;;;;;;;7.78;2.42;;;;;;;20.55;60.86;101188.25;2089825;28;20156;-79
2022/10/07 04:24:43;;;;;;;16.40;3.33;;;;;;;20.55;60.90;101182.88;2083525;28;20089;-78
2022/10/07 04:26:06;;;;;;;11.05;3.00;;;;;;;20.58;60.89;101177.47;2089811;28;20072;-78
2022/10/07 04:27:29;;;;;;;16.80;3.15;;;;;;;20.58;61.18;101181.94;2089030;28;20048;-77
2022/10/07 04:28:51;;;;;;;9.57;2.80;;;;;;;20.60;61.11;101177.44;2087593;28;20069;-78
2022/10/07 04:30:15;;;;;;;10.18;2.47;;;;;;;20.61;60.86;101181.91;2087832;28;20076;-78
2022/10/07 04:31:38;;;;;;;15.32;3.65;;;;;;;20.63;60.83;101185.41;2098939;28;20040;-78
2022/10/07 04:33:02;;;;;;;10.30;2.58;;;;;;;20.65;60.93;101179.13;2096272;28;20056;-78
2022/10/07 04:34:27;;;;;;;14.13;3.05;;;;;;;20.68;60.93;101181.72;2081999;28;20029;-78
2022/10/07 04:35:49;;;;;;;12.73;2.88;;;;;;;20.71;60.99;101190.63;2085498;28;20087;-78
2022/10/07 04:37:12;;;;;;;9.32;3.20;;;;;;;20.72;61.05;101179.00;2084126;28;20456;-77
2022/10/07 04:38:35;;;;;;;9.35;2.50;;;;;;;20.75;60.87;101181.59;2091641;28;20104;-78
2022/10/07 04:39:57;;;;;;;14.00;3.97;;;;;;;20.78;60.83;101186.94;2084854;28;20087;-77
2022/10/07 04:41:20;;;;;;;8.32;2.58;;;;;;;20.81;60.90;101184.16;2089996;28;20063;-77
2022/10/07 04:44:23;;;;;;;11.65;3.15;;;;;;;20.90;60.83;101194.72;2079253;28;20136;-77
2022/10/07 04:45:58;;;;;;;12.55;2.63;;;;;;;20.91;60.82;101183.97;2076392;28;20153;-77
2022/10/07 04:47:22;;;;;;;10.63;2.83;;;;;;;20.91;60.60;101197.41;2084402;28;20440;-78
2022/10/07 04:48:45;;;;;;;9.63;2.47;;;;;;;20.93;60.57;101195.56;2076812;28;20045;-77
2022/10/07 04:50:11;;;;;;;13.75;2.40;;;;;;;20.96;60.41;101197.28;2077392;28;20081;-78
2022/10/07 04:51:34;;;;;;;8.65;2.50;;;;;;;21.00;60.36;101190.97;2089975;28;20079;-77
2022/10/07 04:52:57;;;;;;;12.70;2.45;;;;;;;21.03;60.28;101196.25;2084860;28;20057;-78
2022/10/07 04:54:19;;;;;;;8.55;2.38;;;;;;;21.03;60.23;101182.84;2085088;28;20500;-78
2022/10/07 04:55:48;;;;;;;13.35;3.03;;;;;;;21.03;60.11;101188.19;2080835;28;20045;-78
2022/10/07 04:57:12;;;;;;;9.52;2.75;;;;;;;21.02;60.26;101199.84;2087078;28;20484;-77
2022/10/07 04:58:36;;;;;;;11.38;2.38;;;;;;;21.00;60.31;101190.97;2087005;28;20143;-77
2022/10/07 05:00:00;;;;;;;9.15;2.20;;;;;;;20.99;60.22;101199.94;2080947;28;20073;-78
2022/10/07 05:01:24;;;;;;;8.23;2.78;;;;;;;20.98;60.33;101190.09;2092523;28;20051;-77
2022/10/07 05:02:49;;;;;;;10.30;2.65;;;;;;;21.00;60.31;101202.56;2080952;28;20576;-78
2022/10/07 05:04:12;;;;;;;11.65;2.28;;;;;;;21.00;60.40;101189.13;2093140;28;20052;-77
2022/10/07 05:05:37;;;;;;;13.65;2.97;;;;;;;21.02;60.23;101189.13;2090164;28;20573;-77
2022/10/07 05:06:59;;;;;;;10.27;2.67;;;;;;;21.02;60.19;101199.84;2094783;28;20048;-78
2022/10/07 05:08:23;;;;;;;10.63;2.28;;;;;;;21.04;60.46;101209.66;2080980;28;20050;-78
2022/10/07 05:09:46;;;;;;;9.18;2.50;;;;;;;21.05;60.58;101203.38;2084615;28;20051;-78
2022/10/07 05:11:10;;;;;;;11.00;3.55;;;;;;;21.06;60.57;101212.31;2085164;28;20037;-77
2022/10/07 05:12:41;;;;;;;9.60;2.50;;;;;;;21.06;60.68;101215.88;2094677;28;20054;-78
2022/10/07 05:14:04;;;;;;;11.73;3.08;;;;;;;21.08;60.46;101205.97;2078444;28;20037;-78
2022/10/07 05:15:27;;;;;;;11.73;2.83;;;;;;;21.09;60.47;101210.44;2087354;28;20052;-77
2022/10/07 05:16:51;;;;;;;8.70;2.38;;;;;;;21.12;60.37;101201.44;2091862;28;20146;-78
2022/10/07 05:18:14;;;;;;;12.85;3.10;;;;;;;21.15;60.14;101211.22;2089167;28;20045;-78
2022/10/07 05:19:37;;;;;;;20.55;3.63;;;;;;;21.19;60.10;101215.66;2086432;28;20144;-78
2022/10/07 05:21:04;;;;;;;8.50;2.30;;;;;;;21.25;59.77;101223.59;2080626;28;20517;-78
2022/10/07 05:22:28;;;;;;;7.20;2.30;;;;;;;21.30;59.47;101209.16;2080922;28;20083;-78
2022/10/07 05:23:50;;;;;;;9.35;2.53;;;;;;;21.40;59.36;101208.00;2097625;28;20211;-78
2022/10/07 05:25:18;;;;;;;9.35;2.20;;;;;;;21.49;59.20;101212.31;2088524;28;20057;-78
2022/10/07 05:26:42;;;;;;;8.05;2.20;;;;;;;21.57;58.86;101214.84;2090251;28;20048;-78
2022/10/07 05:28:04;;;;;;;10.43;2.55;;;;;;;21.64;58.66;101219.16;2086477;28;20048;-78
2022/10/07 05:29:27;;;;;;;13.63;3.55;;;;;;;21.67;58.77;101211.88;2083491;28;20041;-78
2022/10/07 05:31:01;;;;;;;8.13;2.72;;;;;;;21.71;58.67;101210.91;2076096;28;20433;-77
2022/10/07 05:32:25;;;;;;;10.88;2.20;;;;;;;21.77;58.52;101215.28;2079770;28;20046;-78
2022/10/07 05:33:48;;;;;;;9.30;2.70;;;;;;;21.82;58.50;101216.94;2084559;28;20065;-78
2022/10/07 05:35:11;;;;;;;10.40;2.25;;;;;;;21.90;58.55;101210.47;2078605;28;20620;-78
2022/10/07 05:36:36;;;;;;;11.15;2.45;;;;;;;21.94;58.38;101220.22;2080725;28;20091;-78
2022/10/07 05:38:00;;;;;;;9.05;2.42;;;;;;;21.96;58.33;101223.81;2078731;28;20551;-78
2022/10/07 05:39:24;;;;;;;6.38;2.10;;;;;;;21.98;58.35;101228.25;2082335;28;20041;-78
2022/10/07 05:40:58;;;;;;;11.40;2.70;;;;;;;21.99;58.40;101230.00;2087015;28;20547;-77
2022/10/07 05:42:21;;;;;;;7.35;2.05;;;;;;;21.98;58.34;101227.38;2085117;28;20148;-78
2022/10/07 05:43:51;;;;;;;10.85;2.97;;;;;;;21.96;58.37;101229.19;2084219;28;20045;-78
2022/10/07 05:45:14;;;;;;;7.32;2.20;;;;;;;21.94;58.28;101229.19;2086163;28;20064;-78
2022/10/07 05:46:35;;;;;;;11.90;3.17;;;;;;;21.92;58.17;101235.53;2092544;28;20502;-78
2022/10/07 05:47:58;;;;;;;6.32;2.10;;;;;;;21.90;58.12;101238.25;2086080;28;20072;-78
2022/10/07 05:49:20;;;;;;;10.38;2.70;;;;;;;21.89;58.07;101231.09;2091437;28;20161;-78
2022/10/07 05:50:46;;;;;;;7.78;2.28;;;;;;;21.88;58.12;101240.09;2095096;28;20041;-77
2022/10/07 05:52:10;;;;;;;7.65;2.78;;;;;;;21.87;58.07;101232.94;2089454;28;20051;-78
2022/10/07 05:53:33;;;;;;;8.05;2.22;;;;;;;21.86;58.17;101229.38;2086938;28;20033;-79
2022/10/07 05:54:56;;;;;;;12.32;2.78;;;;;;;21.89;58.12;101239.16;2082275;28;20766;-79
2022/10/07 05:56:20;;;;;;;12.18;2.72;;;;;;;21.91;58.10;101245.41;2083910;28;20049;-78
2022/10/07 05:57:43;;;;;;;10.20;2.40;;;;;;;21.96;58.17;101237.25;2092579;28;20044;-79
2022/10/07 05:59:06;;;;;;;15.32;2.85;;;;;;;22.01;58.15;101236.22;2086694;28;20041;-79
2022/10/07 06:00:28;;;;;;;7.63;2.30;;;;;;;22.04;58.14;101237.97;2095023;28;20543;-78
2022/10/07 06:01:55;;;;;;;7.82;2.08;;;;;;;22.06;58.03;101247.75;2087743;28;20852;-78
2022/10/07 06:03:16;;;;;;;10.52;2.55;;;;;;;22.05;58.14;101243.31;2086685;28;20643;-78
2022/10/07 06:04:41;;;;;;;9.00;2.22;;;;;;;22.04;58.20;101248.72;2075165;28;20058;-77
2022/10/07 06:06:03;;;;;;;10.85;2.15;;;;;;;22.01;58.08;101246.97;2083871;28;20148;-79
2022/10/07 06:07:28;;;;;;;11.68;2.50;;;;;;;22.02;58.17;101240.69;2086615;28;20049;-77
2022/10/07 06:08:51;;;;;;;8.48;2.15;;;;;;;22.03;58.04;101250.53;2094938;28;20049;-79
2022/10/07 06:13:34;;;;;;;10.65;2.47;;;;;;;22.11;57.76;101251.25;2089136;28;20179;-78
2022/10/07 06:14:58;;;;;;;10.05;2.20;;;;;;;22.10;57.65;101254.84;2084342;28;20057;-77
2022/10/07 06:16:20;;;;;;;9.98;2.35;;;;;;;22.12;57.72;101250.28;2081263;28;20043;-77
2022/10/07 06:17:45;;;;;;;9.80;2.38;;;;;;;22.14;57.49;101259.22;2084147;28;20068;-78
2022/10/07 06:19:21;;;;;;;9.93;2.10;;;;;;;22.16;57.13;101254.69;2084921;28;20576;-77
2022/10/07 06:20:53;;;;;;;7.00;2.38;;;;;;;22.27;56.73;101249.03;2094688;28;20579;-77
2022/10/07 06:22:18;;;;;;;12.27;2.28;;;;;;;22.31;56.39;101253.44;2093297;28;20037;-77
2022/10/07 06:23:43;;;;;;;10.05;2.88;;;;;;;22.38;56.12;101262.25;2089142;28;20049;-77
2022/10/07 06:25:07;;;;;;;8.02;2.05;;;;;;;22.44;56.17;101259.41;2097828;28;20072;-76
2022/10/07 06:26:29;;;;;;;7.95;2.67;;;;;;;22.46;56.07;101260.22;2087301;28;20052;-76
2022/10/07 06:27:50;;;;;;;9.65;2.38;;;;;;;22.45;56.04;101255.78;2094762;28;20080;-78
2022/10/07 06:29:13;;;;;;;5.60;2.03;;;;;;;22.38;56.24;101255.06;2084726;28;20131;-77
2022/10/07 06:30:38;;;;;;;5.38;2.10;;;;;;;22.36;56.21;101258.69;2085935;28;20045;-76
2022/10/07 06:32:01;;;;;;;9.90;2.13;;;;;;;22.36;56.21;101266.75;2099511;28;20053;-75
2022/10/07 06:33:25;;;;;;;9.02;2.30;;;;;;;22.43;56.11;101265.69;2082334;28;20043;-75
2022/10/07 06:34:48;;;;;;;7.13;1.90;;;;;;;22.49;56.04;101268.22;2089600;28;20048;-76
2022/10/07 06:36:13;;;;;;;8.05;2.05;;;;;;;22.55;55.78;101262.69;2081430;28;20519;-75
2022/10/07 06:37:40;;;;;;;9.65;2.10;;;;;;;22.61;55.79;101278.69;2092769;28;20049;-75
2022/10/07 06:39:06;;;;;;;9.88;2.05;;;;;;;22.85;55.75;101272.66;2085245;28;20516;-75
2022/10/07 06:40:33;;;;;;;10.00;1.90;;;;;;;23.12;55.42;101267.44;2091317;28;20071;-74